AEROCLUBE REGIONAL DE MARINGÁ
SIMET - SISTEMA DE INFORMAÇÃO METEOROLÓGICA
 Nascer do Sol 06:48
MARINGÁ, DOMINGO 30 DE ABRIL DE 2017
Por do Sol 18:02 
HORA LEGAL
HORA UTC
SBMG 010100Z 09009KT CAVOK 20/16 Q1020
 METAR  SBMG 010200Z 09013KT CAVOK 19/15 Q1020     VFR    
Pista 10, vento alinhado de 90º (E) com 13kt
        TRICICLO          CONVENCIONAL 
 AVISO DE AERÓDROMO 
SQLSTATE[HY000] [2002] php_network_getaddresses: getaddrinfo failed: Nome ou serviço desconhecido
     TAF     
SBMG 302130Z 0100/0112 08008KT CAVOK TX20/0100Z TN15/0108Z RMK PDW=